sensor_id;sensor_type;location;lat;lon;timestamp;P1;durP1;ratioP1;P2;durP2;ratioP2
78612;SDS011;67933;51.060;3.638;2024-01-15T00:00:18;3.47;;;2.58;;
78612;SDS011;67933;51.060;3.638;2024-01-15T00:02:43;5.07;;;3.17;;
78612;SDS011;67933;51.060;3.638;2024-01-15T00:05:09;4.40;;;3.10;;
78612;SDS011;67933;51.060;3.638;2024-01-15T00:07:35;6.70;;;3.10;;
78612;SDS011;67933;51.060;3.638;2024-01-15T00:10:00;6.50;;;2.88;;
78612;SDS011;67933;51.060;3.638;2024-01-15T00:12:26;6.85;;;3.38;;
78612;SDS011;67933;51.060;3.638;2024-01-15T00:14:53;5.10;;;3.28;;
78612;SDS011;67933;51.060;3.638;2024-01-15T00:17:18;4.00;;;3.10;;
78612;SDS011;67933;51.060;3.638;2024-01-15T00:19:44;6.65;;;2.78;;
78612;SDS011;67933;51.060;3.638;2024-01-15T00:22:09;5.45;;;3.15;;
78612;SDS011;67933;51.060;3.638;2024-01-15T00:24:35;6.07;;;3.08;;
78612;SDS011;67933;51.060;3.638;2024-01-15T00:27:00;6.47;;;2.53;;
78612;SDS011;67933;51.060;3.638;2024-01-15T00:29:25;6.72;;;3.33;;
78612;SDS011;67933;51.060;3.638;2024-01-15T00:31:51;5.25;;;2.78;;
78612;SDS011;67933;51.060;3.638;2024-01-15T00:34:17;3.92;;;3.05;;
78612;SDS011;67933;51.060;3.638;2024-01-15T00:36:42;5.53;;;3.08;;
78612;SDS011;67933;51.060;3.638;2024-01-15T00:39:08;6.50;;;3.70;;
78612;SDS011;67933;51.060;3.638;2024-01-15T00:41:35;5.70;;;3.03;;
78612;SDS011;67933;51.060;3.638;2024-01-15T00:44:01;3.70;;;2.72;;
78612;SDS011;67933;51.060;3.638;2024-01-15T00:46:27;3.13;;;2.83;;
78612;SDS011;67933;51.060;3.638;2024-01-15T00:48:53;4.03;;;2.58;;
78612;SDS011;67933;51.060;3.638;2024-01-15T00:51:19;5.88;;;3.00;;
78612;SDS011;67933;51.060;3.638;2024-01-15T00:53:44;5.43;;;2.90;;
78612;SDS011;67933;51.060;3.638;2024-01-15T00:56:09;5.35;;;2.95;;
78612;SDS011;67933;51.060;3.638;2024-01-15T00:58:35;5.65;;;2.90;;
78612;SDS011;67933;51.060;3.638;2024-01-15T01:01:00;4.32;;;2.85;;
78612;SDS011;67933;51.060;3.638;2024-01-15T01:03:25;9.02;;;2.83;;
78612;SDS011;67933;51.060;3.638;2024-01-15T01:05:51;5.22;;;2.33;;
78612;SDS011;67933;51.060;3.638;2024-01-15T01:08:16;6.00;;;2.53;;
78612;SDS011;67933;51.060;3.638;2024-01-15T01:10:42;5.88;;;3.13;;
78612;SDS011;67933;51.060;3.638;2024-01-15T01:13:10;4.68;;;2.85;;
78612;SDS011;67933;51.060;3.638;2024-01-15T01:15:36;7.88;;;2.95;;
78612;SDS011;67933;51.060;3.638;2024-01-15T01:18:02;3.42;;;2.40;;
78612;SDS011;67933;51.060;3.638;2024-01-15T01:20:28;6.75;;;2.63;;
78612;SDS011;67933;51.060;3.638;2024-01-15T01:22:53;4.32;;;2.60;;
78612;SDS011;67933;51.060;3.638;2024-01-15T01:25:19;8.30;;;3.05;;
78612;SDS011;67933;51.060;3.638;2024-01-15T01:27:44;6.90;;;3.15;;
78612;SDS011;67933;51.060;3.638;2024-01-15T01:30:09;5.95;;;2.70;;
78612;SDS011;67933;51.060;3.638;2024-01-15T01:32:35;3.80;;;2.78;;
78612;SDS011;67933;51.060;3.638;2024-01-15T01:35:00;3.25;;;2.50;;
78612;SDS011;67933;51.060;3.638;2024-01-15T01:37:26;4.57;;;2.85;;
78612;SDS011;67933;51.060;3.638;2024-01-15T01:39:51;5.35;;;2.80;;
78612;SDS011;67933;51.060;3.638;2024-01-15T01:42:17;4.88;;;3.10;;
78612;SDS011;67933;51.060;3.638;2024-01-15T01:44:43;6.28;;;3.03;;
78612;SDS011;67933;51.060;3.638;2024-01-15T01:47:09;4.25;;;3.00;;
78612;SDS011;67933;51.060;3.638;2024-01-15T01:49:34;6.03;;;2.97;;
78612;SDS011;67933;51.060;3.638;2024-01-15T01:52:03;5.70;;;3.55;;
78612;SDS011;67933;51.060;3.638;2024-01-15T01:54:31;7.50;;;3.47;;
78612;SDS011;67933;51.060;3.638;2024-01-15T01:56:57;6.57;;;3.30;;
78612;SDS011;67933;51.060;3.638;2024-01-15T01:59:23;8.48;;;3.67;;
78612;SDS011;67933;51.060;3.638;2024-01-15T02:01:54;6.30;;;3.13;;
78612;SDS011;67933;51.060;3.638;2024-01-15T02:04:22;5.10;;;3.45;;
78612;SDS011;67933;51.060;3.638;2024-01-15T02:06:49;5.15;;;3.10;;
78612;SDS011;67933;51.060;3.638;2024-01-15T02:09:15;7.18;;;3.60;;
78612;SDS011;67933;51.060;3.638;2024-01-15T02:11:41;5.10;;;3.20;;
78612;SDS011;67933;51.060;3.638;2024-01-15T02:14:07;6.15;;;3.45;;
78612;SDS011;67933;51.060;3.638;2024-01-15T02:16:34;7.30;;;3.28;;
78612;SDS011;67933;51.060;3.638;2024-01-15T02:18:59;5.13;;;2.78;;
78612;SDS011;67933;51.060;3.638;2024-01-15T02:21:24;5.45;;;3.40;;
78612;SDS011;67933;51.060;3.638;2024-01-15T02:23:53;6.20;;;2.83;;
78612;SDS011;67933;51.060;3.638;2024-01-15T02:26:19;4.82;;;3.10;;
78612;SDS011;67933;51.060;3.638;2024-01-15T02:28:44;7.15;;;3.25;;
78612;SDS011;67933;51.060;3.638;2024-01-15T02:31:09;6.78;;;3.20;;
78612;SDS011;67933;51.060;3.638;2024-01-15T02:33:36;6.75;;;3.38;;
78612;SDS011;67933;51.060;3.638;2024-01-15T02:36:01;7.30;;;3.28;;
78612;SDS011;67933;51.060;3.638;2024-01-15T02:38:28;4.82;;;3.15;;
78612;SDS011;67933;51.060;3.638;2024-01-15T02:40:54;4.93;;;3.00;;
78612;SDS011;67933;51.060;3.638;2024-01-15T02:43:19;11.10;;;3.72;;
78612;SDS011;67933;51.060;3.638;2024-01-15T02:45:45;6.18;;;4.22;;
78612;SDS011;67933;51.060;3.638;2024-01-15T02:48:11;4.60;;;3.55;;
78612;SDS011;67933;51.060;3.638;2024-01-15T02:50:37;7.95;;;3.67;;
78612;SDS011;67933;51.060;3.638;2024-01-15T02:53:02;3.65;;;2.58;;
78612;SDS011;67933;51.060;3.638;2024-01-15T02:55:28;6.93;;;2.92;;
78612;SDS011;67933;51.060;3.638;2024-01-15T02:57:54;7.18;;;3.20;;
78612;SDS011;67933;51.060;3.638;2024-01-15T03:00:20;5.72;;;3.70;;
78612;SDS011;67933;51.060;3.638;2024-01-15T03:02:45;6.78;;;4.07;;
78612;SDS011;67933;51.060;3.638;2024-01-15T03:05:11;5.10;;;3.40;;
78612;SDS011;67933;51.060;3.638;2024-01-15T03:07:37;7.88;;;3.42;;
78612;SDS011;67933;51.060;3.638;2024-01-15T03:10:02;7.05;;;3.83;;
78612;SDS011;67933;51.060;3.638;2024-01-15T03:12:28;5.78;;;3.60;;
78612;SDS011;67933;51.060;3.638;2024-01-15T03:14:53;6.15;;;3.28;;
78612;SDS011;67933;51.060;3.638;2024-01-15T03:17:19;5.80;;;3.70;;
78612;SDS011;67933;51.060;3.638;2024-01-15T03:19:44;6.65;;;3.30;;
78612;SDS011;67933;51.060;3.638;2024-01-15T03:22:09;5.88;;;3.15;;
78612;SDS011;67933;51.060;3.638;2024-01-15T03:24:35;5.15;;;3.50;;
78612;SDS011;67933;51.060;3.638;2024-01-15T03:27:01;3.85;;;3.17;;
78612;SDS011;67933;51.060;3.638;2024-01-15T03:29:27;6.78;;;3.17;;
78612;SDS011;67933;51.060;3.638;2024-01-15T03:31:52;9.50;;;3.40;;
78612;SDS011;67933;51.060;3.638;2024-01-15T03:34:18;6.15;;;2.92;;
78612;SDS011;67933;51.060;3.638;2024-01-15T03:36:44;3.92;;;2.50;;
78612;SDS011;67933;51.060;3.638;2024-01-15T03:39:10;6.57;;;2.55;;
78612;SDS011;67933;51.060;3.638;2024-01-15T03:41:35;3.78;;;2.78;;
78612;SDS011;67933;51.060;3.638;2024-01-15T03:44:00;6.10;;;2.60;;
78612;SDS011;67933;51.060;3.638;2024-01-15T03:46:26;3.63;;;2.53;;
78612;SDS011;67933;51.060;3.638;2024-01-15T03:48:52;5.40;;;2.47;;
78612;SDS011;67933;51.060;3.638;2024-01-15T03:51:17;4.97;;;2.55;;
78612;SDS011;67933;51.060;3.638;2024-01-15T03:53:43;4.75;;;2.17;;
78612;SDS011;67933;51.060;3.638;2024-01-15T03:56:08;8.05;;;2.20;;
78612;SDS011;67933;51.060;3.638;2024-01-15T03:58:34;5.65;;;1.92;;
78612;SDS011;67933;51.060;3.638;2024-01-15T04:00:59;6.38;;;1.92;;
78612;SDS011;67933;51.060;3.638;2024-01-15T04:03:25;6.60;;;1.52;;
78612;SDS011;67933;51.060;3.638;2024-01-15T04:05:50;5.10;;;1.40;;
78612;SDS011;67933;51.060;3.638;2024-01-15T04:08:16;4.78;;;1.95;;
78612;SDS011;67933;51.060;3.638;2024-01-15T04:10:41;2.78;;;1.63;;
78612;SDS011;67933;51.060;3.638;2024-01-15T04:13:06;5.57;;;1.63;;
78612;SDS011;67933;51.060;3.638;2024-01-15T04:15:32;5.88;;;1.65;;
78612;SDS011;67933;51.060;3.638;2024-01-15T04:17:57;2.58;;;1.45;;
78612;SDS011;67933;51.060;3.638;2024-01-15T04:20:23;3.15;;;1.75;;
78612;SDS011;67933;51.060;3.638;2024-01-15T04:22:48;4.13;;;2.05;;
78612;SDS011;67933;51.060;3.638;2024-01-15T04:25:13;4.97;;;1.75;;
78612;SDS011;67933;51.060;3.638;2024-01-15T04:27:39;9.25;;;1.70;;
78612;SDS011;67933;51.060;3.638;2024-01-15T04:30:04;2.13;;;1.58;;
78612;SDS011;67933;51.060;3.638;2024-01-15T04:32:30;3.88;;;1.73;;
78612;SDS011;67933;51.060;3.638;2024-01-15T04:34:55;5.15;;;2.10;;
78612;SDS011;67933;51.060;3.638;2024-01-15T04:37:21;2.33;;;1.75;;
78612;SDS011;67933;51.060;3.638;2024-01-15T04:39:46;3.50;;;1.63;;
78612;SDS011;67933;51.060;3.638;2024-01-15T04:42:12;3.58;;;1.70;;
78612;SDS011;67933;51.060;3.638;2024-01-15T04:44:37;6.07;;;1.92;;
78612;SDS011;67933;51.060;3.638;2024-01-15T04:47:03;1.85;;;1.55;;
78612;SDS011;67933;51.060;3.638;2024-01-15T04:49:28;9.15;;;2.00;;
78612;SDS011;67933;51.060;3.638;2024-01-15T04:51:54;3.70;;;1.60;;
78612;SDS011;67933;51.060;3.638;2024-01-15T04:54:20;1.83;;;1.60;;
78612;SDS011;67933;51.060;3.638;2024-01-15T04:56:45;3.03;;;1.60;;
78612;SDS011;67933;51.060;3.638;2024-01-15T04:59:11;4.75;;;1.70;;
78612;SDS011;67933;51.060;3.638;2024-01-15T05:01:38;4.00;;;1.98;;
78612;SDS011;67933;51.060;3.638;2024-01-15T05:04:03;6.32;;;2.00;;
78612;SDS011;67933;51.060;3.638;2024-01-15T05:06:28;2.67;;;1.50;;
78612;SDS011;67933;51.060;3.638;2024-01-15T05:08:54;5.30;;;1.75;;
78612;SDS011;67933;51.060;3.638;2024-01-15T05:11:19;5.28;;;1.80;;
78612;SDS011;67933;51.060;3.638;2024-01-15T05:13:45;3.20;;;1.60;;
78612;SDS011;67933;51.060;3.638;2024-01-15T05:16:10;4.22;;;1.83;;
78612;SDS011;67933;51.060;3.638;2024-01-15T05:18:36;4.78;;;2.17;;
78612;SDS011;67933;51.060;3.638;2024-01-15T05:21:04;4.68;;;1.98;;
78612;SDS011;67933;51.060;3.638;2024-01-15T05:23:31;3.03;;;1.77;;
78612;SDS011;67933;51.060;3.638;2024-01-15T05:25:56;3.50;;;2.00;;
78612;SDS011;67933;51.060;3.638;2024-01-15T05:28:23;3.83;;;1.70;;
78612;SDS011;67933;51.060;3.638;2024-01-15T05:30:48;6.43;;;1.95;;
78612;SDS011;67933;51.060;3.638;2024-01-15T05:33:15;3.58;;;1.80;;
78612;SDS011;67933;51.060;3.638;2024-01-15T05:35:41;4.85;;;2.20;;
78612;SDS011;67933;51.060;3.638;2024-01-15T05:38:06;2.80;;;2.15;;
78612;SDS011;67933;51.060;3.638;2024-01-15T05:40:32;3.88;;;2.10;;
78612;SDS011;67933;51.060;3.638;2024-01-15T05:42:57;2.55;;;1.63;;
78612;SDS011;67933;51.060;3.638;2024-01-15T05:45:23;4.05;;;1.90;;
78612;SDS011;67933;51.060;3.638;2024-01-15T05:47:48;9.10;;;2.03;;
78612;SDS011;67933;51.060;3.638;2024-01-15T05:50:14;8.50;;;1.83;;
78612;SDS011;67933;51.060;3.638;2024-01-15T05:52:39;6.68;;;1.80;;
78612;SDS011;67933;51.060;3.638;2024-01-15T05:55:06;5.50;;;2.03;;
78612;SDS011;67933;51.060;3.638;2024-01-15T05:57:32;6.55;;;1.88;;
78612;SDS011;67933;51.060;3.638;2024-01-15T05:59:57;5.95;;;2.28;;
78612;SDS011;67933;51.060;3.638;2024-01-15T06:02:23;5.75;;;1.98;;
78612;SDS011;67933;51.060;3.638;2024-01-15T06:04:49;8.85;;;1.85;;
78612;SDS011;67933;51.060;3.638;2024-01-15T06:07:15;10.32;;;2.25;;
78612;SDS011;67933;51.060;3.638;2024-01-15T06:09:40;4.28;;;1.90;;
78612;SDS011;67933;51.060;3.638;2024-01-15T06:12:06;6.88;;;2.30;;
78612;SDS011;67933;51.060;3.638;2024-01-15T06:14:32;2.40;;;1.58;;
78612;SDS011;67933;51.060;3.638;2024-01-15T06:16:57;5.40;;;1.95;;
78612;SDS011;67933;51.060;3.638;2024-01-15T06:19:23;7.15;;;1.65;;
78612;SDS011;67933;51.060;3.638;2024-01-15T06:21:48;3.60;;;1.77;;
78612;SDS011;67933;51.060;3.638;2024-01-15T06:24:13;6.00;;;2.25;;
78612;SDS011;67933;51.060;3.638;2024-01-15T06:26:40;5.03;;;1.80;;
78612;SDS011;67933;51.060;3.638;2024-01-15T06:29:05;5.13;;;1.73;;
78612;SDS011;67933;51.060;3.638;2024-01-15T06:31:30;6.65;;;1.75;;
78612;SDS011;67933;51.060;3.638;2024-01-15T06:33:56;6.25;;;1.80;;
78612;SDS011;67933;51.060;3.638;2024-01-15T06:36:21;4.53;;;2.35;;
78612;SDS011;67933;51.060;3.638;2024-01-15T06:38:47;7.55;;;1.90;;
78612;SDS011;67933;51.060;3.638;2024-01-15T06:41:12;3.17;;;1.65;;
78612;SDS011;67933;51.060;3.638;2024-01-15T06:43:38;6.20;;;1.85;;
78612;SDS011;67933;51.060;3.638;2024-01-15T06:46:03;6.38;;;1.60;;
78612;SDS011;67933;51.060;3.638;2024-01-15T06:48:28;4.97;;;2.22;;
78612;SDS011;67933;51.060;3.638;2024-01-15T06:50:54;3.88;;;2.00;;
78612;SDS011;67933;51.060;3.638;2024-01-15T06:53:21;8.32;;;2.08;;
78612;SDS011;67933;51.060;3.638;2024-01-15T06:55:46;7.50;;;2.10;;
78612;SDS011;67933;51.060;3.638;2024-01-15T06:58:12;6.00;;;1.98;;
78612;SDS011;67933;51.060;3.638;2024-01-15T07:00:37;4.10;;;1.58;;
78612;SDS011;67933;51.060;3.638;2024-01-15T07:03:03;4.25;;;1.40;;
78612;SDS011;67933;51.060;3.638;2024-01-15T07:05:28;3.75;;;1.80;;
78612;SDS011;67933;51.060;3.638;2024-01-15T07:07:55;6.43;;;1.75;;
78612;SDS011;67933;51.060;3.638;2024-01-15T07:10:21;5.45;;;1.33;;
78612;SDS011;67933;51.060;3.638;2024-01-15T07:12:46;5.07;;;1.60;;
78612;SDS011;67933;51.060;3.638;2024-01-15T07:15:12;5.32;;;1.42;;
78612;SDS011;67933;51.060;3.638;2024-01-15T07:17:37;4.65;;;1.50;;
78612;SDS011;67933;51.060;3.638;2024-01-15T07:20:06;3.72;;;1.60;;
78612;SDS011;67933;51.060;3.638;2024-01-15T07:22:37;2.95;;;1.20;;
78612;SDS011;67933;51.060;3.638;2024-01-15T07:25:04;1.95;;;1.73;;
78612;SDS011;67933;51.060;3.638;2024-01-15T07:27:30;3.75;;;1.60;;
78612;SDS011;67933;51.060;3.638;2024-01-15T07:29:56;6.90;;;1.95;;
78612;SDS011;67933;51.060;3.638;2024-01-15T07:32:21;2.38;;;1.25;;
78612;SDS011;67933;51.060;3.638;2024-01-15T07:34:47;3.30;;;1.55;;
78612;SDS011;67933;51.060;3.638;2024-01-15T07:37:12;5.93;;;1.70;;
78612;SDS011;67933;51.060;3.638;2024-01-15T07:39:38;4.05;;;2.05;;
78612;SDS011;67933;51.060;3.638;2024-01-15T07:42:03;2.72;;;1.40;;
78612;SDS011;67933;51.060;3.638;2024-01-15T07:44:29;3.30;;;1.70;;
78612;SDS011;67933;51.060;3.638;2024-01-15T07:46:54;7.35;;;1.85;;
78612;SDS011;67933;51.060;3.638;2024-01-15T07:49:19;5.40;;;1.80;;
78612;SDS011;67933;51.060;3.638;2024-01-15T07:51:45;4.40;;;1.50;;
78612;SDS011;67933;51.060;3.638;2024-01-15T07:54:10;4.88;;;1.90;;
78612;SDS011;67933;51.060;3.638;2024-01-15T07:59:22;4.32;;;1.38;;
78612;SDS011;67933;51.060;3.638;2024-01-15T08:01:48;4.43;;;1.42;;
78612;SDS011;67933;51.060;3.638;2024-01-15T08:04:13;6.88;;;1.92;;
78612;SDS011;67933;51.060;3.638;2024-01-15T08:06:38;3.83;;;1.50;;
78612;SDS011;67933;51.060;3.638;2024-01-15T08:09:04;4.20;;;1.52;;
78612;SDS011;67933;51.060;3.638;2024-01-15T08:11:30;5.05;;;1.40;;
78612;SDS011;67933;51.060;3.638;2024-01-15T08:13:55;3.50;;;1.52;;
78612;SDS011;67933;51.060;3.638;2024-01-15T08:16:21;3.53;;;1.55;;
78612;SDS011;67933;51.060;3.638;2024-01-15T08:18:46;8.57;;;1.70;;
78612;SDS011;67933;51.060;3.638;2024-01-15T08:21:12;7.18;;;1.67;;
78612;SDS011;67933;51.060;3.638;2024-01-15T08:23:38;5.55;;;1.77;;
78612;SDS011;67933;51.060;3.638;2024-01-15T08:26:04;5.18;;;1.30;;
78612;SDS011;67933;51.060;3.638;2024-01-15T08:28:29;4.30;;;1.50;;
78612;SDS011;67933;51.060;3.638;2024-01-15T08:30:55;3.45;;;1.48;;
78612;SDS011;67933;51.060;3.638;2024-01-15T08:33:21;5.97;;;1.60;;
78612;SDS011;67933;51.060;3.638;2024-01-15T08:35:46;5.38;;;1.70;;
78612;SDS011;67933;51.060;3.638;2024-01-15T08:38:12;6.30;;;1.30;;
78612;SDS011;67933;51.060;3.638;2024-01-15T08:40:37;4.60;;;1.05;;
78612;SDS011;67933;51.060;3.638;2024-01-15T08:43:03;3.00;;;1.15;;
78612;SDS011;67933;51.060;3.638;2024-01-15T08:45:28;6.20;;;1.10;;
78612;SDS011;67933;51.060;3.638;2024-01-15T08:47:54;4.72;;;1.20;;
78612;SDS011;67933;51.060;3.638;2024-01-15T08:50:19;7.30;;;1.45;;
78612;SDS011;67933;51.060;3.638;2024-01-15T08:52:44;5.65;;;1.08;;
78612;SDS011;67933;51.060;3.638;2024-01-15T08:55:11;3.00;;;1.42;;
78612;SDS011;67933;51.060;3.638;2024-01-15T08:57:38;3.38;;;1.10;;
78612;SDS011;67933;51.060;3.638;2024-01-15T09:00:03;5.43;;;1.35;;
78612;SDS011;67933;51.060;3.638;2024-01-15T09:02:33;4.15;;;1.00;;
78612;SDS011;67933;51.060;3.638;2024-01-15T09:04:59;2.85;;;1.63;;
78612;SDS011;67933;51.060;3.638;2024-01-15T09:07:24;6.03;;;1.40;;
78612;SDS011;67933;51.060;3.638;2024-01-15T09:09:51;3.00;;;1.27;;
78612;SDS011;67933;51.060;3.638;2024-01-15T09:12:16;3.70;;;1.15;;
78612;SDS011;67933;51.060;3.638;2024-01-15T09:14:43;1.90;;;1.02;;
78612;SDS011;67933;51.060;3.638;2024-01-15T09:17:09;5.78;;;1.10;;
78612;SDS011;67933;51.060;3.638;2024-01-15T09:19:35;5.75;;;0.98;;
78612;SDS011;67933;51.060;3.638;2024-01-15T09:22:00;4.40;;;1.20;;
78612;SDS011;67933;51.060;3.638;2024-01-15T09:24:26;3.22;;;1.13;;
78612;SDS011;67933;51.060;3.638;2024-01-15T09:26:51;3.17;;;1.25;;
78612;SDS011;67933;51.060;3.638;2024-01-15T09:29:17;5.18;;;1.55;;
78612;SDS011;67933;51.060;3.638;2024-01-15T09:31:43;2.22;;;1.10;;
78612;SDS011;67933;51.060;3.638;2024-01-15T09:34:08;2.75;;;1.00;;
78612;SDS011;67933;51.060;3.638;2024-01-15T09:36:38;4.03;;;0.90;;
78612;SDS011;67933;51.060;3.638;2024-01-15T09:39:05;4.60;;;1.10;;
78612;SDS011;67933;51.060;3.638;2024-01-15T09:41:33;3.47;;;0.98;;
78612;SDS011;67933;51.060;3.638;2024-01-15T09:44:00;4.05;;;1.40;;
78612;SDS011;67933;51.060;3.638;2024-01-15T09:46:27;4.18;;;1.20;;
78612;SDS011;67933;51.060;3.638;2024-01-15T09:48:53;3.58;;;1.25;;
78612;SDS011;67933;51.060;3.638;2024-01-15T09:51:18;5.50;;;1.58;;
78612;SDS011;67933;51.060;3.638;2024-01-15T09:53:45;3.63;;;1.67;;
78612;SDS011;67933;51.060;3.638;2024-01-15T09:56:11;2.72;;;1.10;;
78612;SDS011;67933;51.060;3.638;2024-01-15T09:58:38;4.93;;;1.10;;
78612;SDS011;67933;51.060;3.638;2024-01-15T10:01:04;2.58;;;1.25;;
78612;SDS011;67933;51.060;3.638;2024-01-15T10:03:29;4.50;;;1.17;;
78612;SDS011;67933;51.060;3.638;2024-01-15T10:05:56;3.45;;;1.20;;
78612;SDS011;67933;51.060;3.638;2024-01-15T10:08:24;4.55;;;1.10;;
78612;SDS011;67933;51.060;3.638;2024-01-15T10:10:51;3.80;;;1.08;;
78612;SDS011;67933;51.060;3.638;2024-01-15T10:13:17;6.18;;;1.48;;
78612;SDS011;67933;51.060;3.638;2024-01-15T10:15:45;3.42;;;1.30;;
78612;SDS011;67933;51.060;3.638;2024-01-15T10:18:12;1.88;;;1.10;;
78612;SDS011;67933;51.060;3.638;2024-01-15T10:20:37;4.15;;;1.67;;
78612;SDS011;67933;51.060;3.638;2024-01-15T10:23:04;4.50;;;2.95;;
78612;SDS011;67933;51.060;3.638;2024-01-15T10:25:30;2.53;;;1.08;;
78612;SDS011;67933;51.060;3.638;2024-01-15T10:28:02;2.35;;;1.50;;
78612;SDS011;67933;51.060;3.638;2024-01-15T10:30:29;6.07;;;1.30;;
78612;SDS011;67933;51.060;3.638;2024-01-15T10:32:58;4.75;;;1.17;;
78612;SDS011;67933;51.060;3.638;2024-01-15T10:35:26;4.57;;;1.90;;
78612;SDS011;67933;51.060;3.638;2024-01-15T10:38:00;2.70;;;1.10;;
78612;SDS011;67933;51.060;3.638;2024-01-15T10:40:27;3.53;;;1.10;;
78612;SDS011;67933;51.060;3.638;2024-01-15T10:42:53;10.40;;;3.78;;
78612;SDS011;67933;51.060;3.638;2024-01-15T10:45:18;6.90;;;2.85;;
78612;SDS011;67933;51.060;3.638;2024-01-15T10:47:44;5.93;;;1.60;;
78612;SDS011;67933;51.060;3.638;2024-01-15T10:50:10;3.47;;;1.40;;
78612;SDS011;67933;51.060;3.638;2024-01-15T10:52:36;7.10;;;1.50;;
78612;SDS011;67933;51.060;3.638;2024-01-15T10:55:03;3.35;;;1.35;;
78612;SDS011;67933;51.060;3.638;2024-01-15T10:57:30;3.30;;;1.50;;
78612;SDS011;67933;51.060;3.638;2024-01-15T10:59:56;1.45;;;1.23;;
78612;SDS011;67933;51.060;3.638;2024-01-15T11:02:21;4.60;;;1.13;;
78612;SDS011;67933;51.060;3.638;2024-01-15T11:04:47;6.35;;;1.48;;
78612;SDS011;67933;51.060;3.638;2024-01-15T11:07:13;3.17;;;1.30;;
78612;SDS011;67933;51.060;3.638;2024-01-15T11:09:38;5.60;;;1.40;;
78612;SDS011;67933;51.060;3.638;2024-01-15T11:12:09;4.82;;;1.35;;
78612;SDS011;67933;51.060;3.638;2024-01-15T11:17:08;4.13;;;1.30;;
78612;SDS011;67933;51.060;3.638;2024-01-15T11:19:53;6.88;;;1.90;;
78612;SDS011;67933;51.060;3.638;2024-01-15T11:24:57;2.70;;;1.40;;
78612;SDS011;67933;51.060;3.638;2024-01-15T11:27:59;3.65;;;1.88;;
78612;SDS011;67933;51.060;3.638;2024-01-15T11:30:18;4.15;;;2.20;;
78612;SDS011;67933;51.060;3.638;2024-01-15T11:32:45;3.05;;;1.30;;
78612;SDS011;67933;51.060;3.638;2024-01-15T11:35:14;2.60;;;1.08;;
78612;SDS011;67933;51.060;3.638;2024-01-15T11:40:20;3.75;;;1.27;;
78612;SDS011;67933;51.060;3.638;2024-01-15T11:42:47;3.45;;;1.17;;
78612;SDS011;67933;51.060;3.638;2024-01-15T11:45:19;2.78;;;1.10;;
78612;SDS011;67933;51.060;3.638;2024-01-15T11:50:27;6.75;;;1.83;;
78612;SDS011;67933;51.060;3.638;2024-01-15T11:53:02;6.45;;;1.33;;
78612;SDS011;67933;51.060;3.638;2024-01-15T11:55:35;3.33;;;1.52;;
78612;SDS011;67933;51.060;3.638;2024-01-15T11:58:07;5.82;;;1.30;;
78612;SDS011;67933;51.060;3.638;2024-01-15T12:00:34;5.32;;;1.42;;
78612;SDS011;67933;51.060;3.638;2024-01-15T12:03:05;5.40;;;1.10;;
78612;SDS011;67933;51.060;3.638;2024-01-15T12:05:31;3.03;;;1.05;;
78612;SDS011;67933;51.060;3.638;2024-01-15T12:07:56;6.75;;;1.40;;
78612;SDS011;67933;51.060;3.638;2024-01-15T12:10:22;4.97;;;1.70;;
78612;SDS011;67933;51.060;3.638;2024-01-15T12:13:05;7.78;;;3.15;;
78612;SDS011;67933;51.060;3.638;2024-01-15T12:15:35;3.88;;;1.17;;
78612;SDS011;67933;51.060;3.638;2024-01-15T12:18:01;4.85;;;1.40;;
78612;SDS011;67933;51.060;3.638;2024-01-15T12:20:27;3.95;;;1.13;;
78612;SDS011;67933;51.060;3.638;2024-01-15T12:22:54;6.00;;;1.48;;
78612;SDS011;67933;51.060;3.638;2024-01-15T12:25:23;7.72;;;1.65;;
78612;SDS011;67933;51.060;3.638;2024-01-15T12:27:50;6.22;;;1.90;;
78612;SDS011;67933;51.060;3.638;2024-01-15T12:30:16;7.90;;;1.77;;
78612;SDS011;67933;51.060;3.638;2024-01-15T12:32:42;7.60;;;1.27;;
78612;SDS011;67933;51.060;3.638;2024-01-15T12:35:12;4.47;;;1.40;;
78612;SDS011;67933;51.060;3.638;2024-01-15T12:37:41;4.18;;;0.88;;
78612;SDS011;67933;51.060;3.638;2024-01-15T12:40:08;2.17;;;1.00;;
78612;SDS011;67933;51.060;3.638;2024-01-15T12:42:41;5.97;;;1.65;;
78612;SDS011;67933;51.060;3.638;2024-01-15T12:45:07;4.50;;;1.10;;
78612;SDS011;67933;51.060;3.638;2024-01-15T12:47:33;4.57;;;1.40;;
78612;SDS011;67933;51.060;3.638;2024-01-15T12:49:59;5.10;;;1.60;;
78612;SDS011;67933;51.060;3.638;2024-01-15T12:52:26;5.13;;;1.40;;
78612;SDS011;67933;51.060;3.638;2024-01-15T12:54:53;4.47;;;0.98;;
78612;SDS011;67933;51.060;3.638;2024-01-15T12:57:18;7.32;;;1.20;;
78612;SDS011;67933;51.060;3.638;2024-01-15T12:59:44;3.67;;;1.40;;
78612;SDS011;67933;51.060;3.638;2024-01-15T13:02:12;7.13;;;1.52;;
78612;SDS011;67933;51.060;3.638;2024-01-15T13:04:38;4.50;;;1.42;;
78612;SDS011;67933;51.060;3.638;2024-01-15T13:07:05;7.57;;;1.88;;
78612;SDS011;67933;51.060;3.638;2024-01-15T13:09:32;7.10;;;1.15;;
78612;SDS011;67933;51.060;3.638;2024-01-15T13:11:57;4.53;;;1.70;;
78612;SDS011;67933;51.060;3.638;2024-01-15T13:14:23;5.53;;;1.23;;
78612;SDS011;67933;51.060;3.638;2024-01-15T13:16:48;3.47;;;1.17;;
78612;SDS011;67933;51.060;3.638;2024-01-15T13:19:14;4.70;;;1.48;;
78612;SDS011;67933;51.060;3.638;2024-01-15T13:21:42;4.55;;;1.35;;
78612;SDS011;67933;51.060;3.638;2024-01-15T13:24:08;4.00;;;1.75;;
78612;SDS011;67933;51.060;3.638;2024-01-15T13:26:36;3.58;;;1.00;;
78612;SDS011;67933;51.060;3.638;2024-01-15T13:29:04;3.28;;;1.25;;
78612;SDS011;67933;51.060;3.638;2024-01-15T13:31:30;3.67;;;1.17;;
78612;SDS011;67933;51.060;3.638;2024-01-15T13:33:56;3.60;;;1.52;;
78612;SDS011;67933;51.060;3.638;2024-01-15T13:36:22;4.82;;;1.30;;
78612;SDS011;67933;51.060;3.638;2024-01-15T13:38:48;2.80;;;1.48;;
78612;SDS011;67933;51.060;3.638;2024-01-15T13:41:14;2.92;;;1.30;;
78612;SDS011;67933;51.060;3.638;2024-01-15T13:43:40;3.72;;;1.20;;
78612;SDS011;67933;51.060;3.638;2024-01-15T13:46:05;9.45;;;2.90;;
78612;SDS011;67933;51.060;3.638;2024-01-15T13:48:31;5.45;;;1.65;;
78612;SDS011;67933;51.060;3.638;2024-01-15T13:50:57;6.18;;;1.33;;
78612;SDS011;67933;51.060;3.638;2024-01-15T13:53:24;4.82;;;1.08;;
78612;SDS011;67933;51.060;3.638;2024-01-15T13:55:49;4.38;;;1.52;;
78612;SDS011;67933;51.060;3.638;2024-01-15T13:58:15;3.83;;;2.47;;
78612;SDS011;67933;51.060;3.638;2024-01-15T14:00:41;4.47;;;1.48;;
78612;SDS011;67933;51.060;3.638;2024-01-15T14:03:06;6.38;;;1.58;;
78612;SDS011;67933;51.060;3.638;2024-01-15T14:05:32;6.47;;;2.15;;
78612;SDS011;67933;51.060;3.638;2024-01-15T14:07:57;2.45;;;1.02;;
78612;SDS011;67933;51.060;3.638;2024-01-15T14:10:23;5.40;;;1.50;;
78612;SDS011;67933;51.060;3.638;2024-01-15T14:12:49;6.28;;;1.20;;
78612;SDS011;67933;51.060;3.638;2024-01-15T14:15:14;4.03;;;1.30;;
78612;SDS011;67933;51.060;3.638;2024-01-15T14:17:39;2.05;;;1.05;;
78612;SDS011;67933;51.060;3.638;2024-01-15T14:20:05;4.03;;;1.23;;
78612;SDS011;67933;51.060;3.638;2024-01-15T14:22:31;4.03;;;1.73;;
78612;SDS011;67933;51.060;3.638;2024-01-15T14:24:57;6.75;;;1.95;;
78612;SDS011;67933;51.060;3.638;2024-01-15T14:27:22;6.55;;;1.60;;
78612;SDS011;67933;51.060;3.638;2024-01-15T14:29:48;5.53;;;1.27;;
78612;SDS011;67933;51.060;3.638;2024-01-15T14:32:14;5.97;;;1.40;;
78612;SDS011;67933;51.060;3.638;2024-01-15T14:34:39;5.50;;;1.40;;
78612;SDS011;67933;51.060;3.638;2024-01-15T14:37:04;6.10;;;1.35;;
78612;SDS011;67933;51.060;3.638;2024-01-15T14:39:31;4.63;;;1.20;;
78612;SDS011;67933;51.060;3.638;2024-01-15T14:41:59;5.28;;;1.40;;
78612;SDS011;67933;51.060;3.638;2024-01-15T14:44:24;5.53;;;1.33;;
78612;SDS011;67933;51.060;3.638;2024-01-15T14:46:50;3.42;;;1.35;;
78612;SDS011;67933;51.060;3.638;2024-01-15T14:49:15;5.65;;;1.95;;
78612;SDS011;67933;51.060;3.638;2024-01-15T14:51:42;7.40;;;3.40;;
78612;SDS011;67933;51.060;3.638;2024-01-15T14:54:09;5.07;;;2.28;;